Gary, Texas
Current Conditions -  °F | °C
As of 8:55 PM on Wednesday 26 Nov 2014 (Local Time) from KRFI Reporting Station
Clear Clear  
Wind Chill: 43°   Ceiling: Unl
Heat Index: 43°   Visibility: 10mi
Dew Point: 38°   Wind: 3mph
Humidity: 82%   Direction: 340°NNW
Pressure: 30.29"   Gusts: NA
Location:  32.03°N, 94.37°W
Report Text: KRFI 270255Z AUTO 34003KT 10SM CLR 06/03 A3029 RMK AO2 T00620034
Loading
Personal Weather Stations






























Interactive Weather Map New forecast layout! Learn more

10-Day Weather Forecast

Advertisements
Track Severe Weather on mobile